sensor_id;sensor_type;location;lat;lon;timestamp;P1;durP1;ratioP1;P2;durP2;ratioP2
16693;SDS011;39538;52.196;9.892;2022-08-21T00:01:45;181.30;;;172.20;;
16693;SDS011;39538;52.196;9.892;2022-08-21T00:04:12;181.67;;;173.73;;
16693;SDS011;39538;52.196;9.892;2022-08-21T00:06:39;200.07;;;191.53;;
16693;SDS011;39538;52.196;9.892;2022-08-21T00:09:07;196.80;;;188.30;;
16693;SDS011;39538;52.196;9.892;2022-08-21T00:11:35;206.33;;;197.33;;
16693;SDS011;39538;52.196;9.892;2022-08-21T00:14:04;194.83;;;186.13;;
16693;SDS011;39538;52.196;9.892;2022-08-21T00:16:32;204.57;;;195.67;;
16693;SDS011;39538;52.196;9.892;2022-08-21T00:18:59;202.93;;;194.10;;
16693;SDS011;39538;52.196;9.892;2022-08-21T00:21:26;204.70;;;195.70;;
16693;SDS011;39538;52.196;9.892;2022-08-21T00:23:53;215.07;;;205.63;;
16693;SDS011;39538;52.196;9.892;2022-08-21T00:26:20;217.13;;;207.73;;
16693;SDS011;39538;52.196;9.892;2022-08-21T00:28:47;208.73;;;199.90;;
16693;SDS011;39538;52.196;9.892;2022-08-21T00:31:14;206.37;;;197.43;;
16693;SDS011;39538;52.196;9.892;2022-08-21T00:33:40;191.60;;;183.10;;
16693;SDS011;39538;52.196;9.892;2022-08-21T00:36:07;186.30;;;178.03;;
16693;SDS011;39538;52.196;9.892;2022-08-21T00:38:35;192.03;;;184.03;;
16693;SDS011;39538;52.196;9.892;2022-08-21T00:41:02;203.07;;;194.47;;
16693;SDS011;39538;52.196;9.892;2022-08-21T00:43:32;201.30;;;192.33;;
16693;SDS011;39538;52.196;9.892;2022-08-21T00:46:00;215.27;;;205.10;;
16693;SDS011;39538;52.196;9.892;2022-08-21T00:48:27;223.57;;;213.70;;
16693;SDS011;39538;52.196;9.892;2022-08-21T00:50:55;228.93;;;219.23;;
16693;SDS011;39538;52.196;9.892;2022-08-21T00:53:24;224.57;;;215.23;;
16693;SDS011;39538;52.196;9.892;2022-08-21T00:55:52;238.17;;;228.33;;
16693;SDS011;39538;52.196;9.892;2022-08-21T00:58:20;227.50;;;217.87;;
16693;SDS011;39538;52.196;9.892;2022-08-21T01:00:50;222.43;;;213.10;;
16693;SDS011;39538;52.196;9.892;2022-08-21T01:03:18;227.03;;;217.43;;
16693;SDS011;39538;52.196;9.892;2022-08-21T01:05:47;216.37;;;206.93;;
16693;SDS011;39538;52.196;9.892;2022-08-21T01:08:14;221.67;;;212.23;;
16693;SDS011;39538;52.196;9.892;2022-08-21T01:10:42;210.87;;;201.87;;
16693;SDS011;39538;52.196;9.892;2022-08-21T01:13:10;222.93;;;213.53;;
16693;SDS011;39538;52.196;9.892;2022-08-21T01:15:39;216.70;;;207.60;;
16693;SDS011;39538;52.196;9.892;2022-08-21T01:18:10;207.27;;;198.27;;
16693;SDS011;39538;52.196;9.892;2022-08-21T01:20:40;220.90;;;211.57;;
16693;SDS011;39538;52.196;9.892;2022-08-21T01:23:10;221.67;;;212.20;;
16693;SDS011;39538;52.196;9.892;2022-08-21T01:25:37;220.33;;;211.37;;
16693;SDS011;39538;52.196;9.892;2022-08-21T01:28:04;214.77;;;205.80;;
16693;SDS011;39538;52.196;9.892;2022-08-21T01:30:35;215.37;;;205.93;;
16693;SDS011;39538;52.196;9.892;2022-08-21T01:33:03;217.10;;;208.00;;
16693;SDS011;39538;52.196;9.892;2022-08-21T01:35:30;217.10;;;208.03;;
16693;SDS011;39538;52.196;9.892;2022-08-21T01:37:56;204.50;;;196.13;;
16693;SDS011;39538;52.196;9.892;2022-08-21T01:40:24;215.97;;;206.93;;
16693;SDS011;39538;52.196;9.892;2022-08-21T01:42:51;211.27;;;202.07;;
16693;SDS011;39538;52.196;9.892;2022-08-21T01:45:18;216.80;;;207.57;;
16693;SDS011;39538;52.196;9.892;2022-08-21T01:47:46;206.10;;;197.33;;
16693;SDS011;39538;52.196;9.892;2022-08-21T01:50:16;211.80;;;202.80;;
16693;SDS011;39538;52.196;9.892;2022-08-21T01:52:44;216.00;;;206.53;;
16693;SDS011;39538;52.196;9.892;2022-08-21T01:55:11;197.80;;;189.03;;
16693;SDS011;39538;52.196;9.892;2022-08-21T01:57:39;201.10;;;192.40;;
16693;SDS011;39538;52.196;9.892;2022-08-21T02:00:07;195.73;;;187.43;;
16693;SDS011;39538;52.196;9.892;2022-08-21T02:02:37;216.10;;;206.63;;
16693;SDS011;39538;52.196;9.892;2022-08-21T02:05:04;204.00;;;195.00;;
16693;SDS011;39538;52.196;9.892;2022-08-21T02:07:35;205.50;;;196.77;;
16693;SDS011;39538;52.196;9.892;2022-08-21T02:10:02;212.63;;;202.77;;
16693;SDS011;39538;52.196;9.892;2022-08-21T02:12:30;201.17;;;192.27;;
16693;SDS011;39538;52.196;9.892;2022-08-21T02:14:58;202.90;;;194.07;;
16693;SDS011;39538;52.196;9.892;2022-08-21T02:17:25;206.73;;;197.47;;
16693;SDS011;39538;52.196;9.892;2022-08-21T02:19:52;210.50;;;201.13;;
16693;SDS011;39538;52.196;9.892;2022-08-21T02:22:18;203.93;;;194.77;;
16693;SDS011;39538;52.196;9.892;2022-08-21T02:24:44;199.53;;;190.70;;
16693;SDS011;39538;52.196;9.892;2022-08-21T02:27:11;200.70;;;192.03;;
16693;SDS011;39538;52.196;9.892;2022-08-21T02:29:37;199.63;;;190.83;;
16693;SDS011;39538;52.196;9.892;2022-08-21T02:32:05;196.37;;;187.73;;
16693;SDS011;39538;52.196;9.892;2022-08-21T02:34:32;206.60;;;197.30;;
16693;SDS011;39538;52.196;9.892;2022-08-21T02:36:58;211.77;;;202.43;;
16693;SDS011;39538;52.196;9.892;2022-08-21T02:39:25;223.73;;;214.07;;
16693;SDS011;39538;52.196;9.892;2022-08-21T02:41:51;218.67;;;209.07;;
16693;SDS011;39538;52.196;9.892;2022-08-21T02:44:18;242.47;;;231.67;;
16693;SDS011;39538;52.196;9.892;2022-08-21T02:46:44;240.90;;;230.17;;
16693;SDS011;39538;52.196;9.892;2022-08-21T02:49:12;259.43;;;248.50;;
16693;SDS011;39538;52.196;9.892;2022-08-21T02:51:38;254.80;;;243.53;;
16693;SDS011;39538;52.196;9.892;2022-08-21T02:54:05;238.07;;;227.47;;
16693;SDS011;39538;52.196;9.892;2022-08-21T02:56:31;245.43;;;234.83;;
16693;SDS011;39538;52.196;9.892;2022-08-21T02:58:58;227.03;;;217.40;;
16693;SDS011;39538;52.196;9.892;2022-08-21T03:01:24;214.23;;;205.30;;
16693;SDS011;39538;52.196;9.892;2022-08-21T03:03:51;215.80;;;206.30;;
16693;SDS011;39538;52.196;9.892;2022-08-21T03:06:21;215.40;;;206.00;;
16693;SDS011;39538;52.196;9.892;2022-08-21T03:08:49;228.87;;;218.97;;
16693;SDS011;39538;52.196;9.892;2022-08-21T03:11:16;228.00;;;218.03;;
16693;SDS011;39538;52.196;9.892;2022-08-21T03:13:44;224.63;;;214.87;;
16693;SDS011;39538;52.196;9.892;2022-08-21T03:16:10;225.00;;;215.30;;
16693;SDS011;39538;52.196;9.892;2022-08-21T03:18:37;228.80;;;219.20;;
16693;SDS011;39538;52.196;9.892;2022-08-21T03:21:03;232.00;;;221.90;;
16693;SDS011;39538;52.196;9.892;2022-08-21T03:23:32;242.37;;;231.87;;
16693;SDS011;39538;52.196;9.892;2022-08-21T03:25:58;216.67;;;207.27;;
16693;SDS011;39538;52.196;9.892;2022-08-21T03:28:25;216.30;;;206.67;;
16693;SDS011;39538;52.196;9.892;2022-08-21T03:30:52;222.13;;;212.70;;
16693;SDS011;39538;52.196;9.892;2022-08-21T03:33:19;224.80;;;214.93;;
16693;SDS011;39538;52.196;9.892;2022-08-21T03:35:47;224.17;;;214.40;;
16693;SDS011;39538;52.196;9.892;2022-08-21T03:38:16;235.70;;;225.60;;
16693;SDS011;39538;52.196;9.892;2022-08-21T03:40:45;231.20;;;221.23;;
16693;SDS011;39538;52.196;9.892;2022-08-21T03:43:11;217.53;;;208.37;;
16693;SDS011;39538;52.196;9.892;2022-08-21T03:45:38;236.43;;;226.33;;
16693;SDS011;39538;52.196;9.892;2022-08-21T03:48:05;234.20;;;224.30;;
16693;SDS011;39538;52.196;9.892;2022-08-21T03:50:33;231.20;;;221.27;;
16693;SDS011;39538;52.196;9.892;2022-08-21T03:53:02;231.07;;;221.23;;
16693;SDS011;39538;52.196;9.892;2022-08-21T03:55:28;235.30;;;224.97;;
16693;SDS011;39538;52.196;9.892;2022-08-21T03:57:56;228.17;;;218.13;;
16693;SDS011;39538;52.196;9.892;2022-08-21T04:00:24;224.63;;;215.23;;
16693;SDS011;39538;52.196;9.892;2022-08-21T04:02:50;227.30;;;217.73;;
16693;SDS011;39538;52.196;9.892;2022-08-21T04:05:17;236.93;;;226.63;;
16693;SDS011;39538;52.196;9.892;2022-08-21T04:07:52;239.63;;;229.40;;
16693;SDS011;39538;52.196;9.892;2022-08-21T04:10:19;234.43;;;224.40;;
16693;SDS011;39538;52.196;9.892;2022-08-21T04:12:46;229.23;;;219.40;;
16693;SDS011;39538;52.196;9.892;2022-08-21T04:15:14;216.77;;;207.27;;
16693;SDS011;39538;52.196;9.892;2022-08-21T04:17:40;230.60;;;220.03;;
16693;SDS011;39538;52.196;9.892;2022-08-21T04:20:07;236.67;;;225.90;;
16693;SDS011;39538;52.196;9.892;2022-08-21T04:22:34;250.20;;;238.57;;
16693;SDS011;39538;52.196;9.892;2022-08-21T04:25:01;223.23;;;213.43;;
16693;SDS011;39538;52.196;9.892;2022-08-21T04:27:28;225.57;;;215.63;;
16693;SDS011;39538;52.196;9.892;2022-08-21T04:29:54;236.07;;;224.97;;
16693;SDS011;39538;52.196;9.892;2022-08-21T04:32:23;229.77;;;219.20;;
16693;SDS011;39538;52.196;9.892;2022-08-21T04:34:49;228.57;;;218.70;;
16693;SDS011;39538;52.196;9.892;2022-08-21T04:37:16;224.43;;;214.60;;
16693;SDS011;39538;52.196;9.892;2022-08-21T04:39:43;235.40;;;225.07;;
16693;SDS011;39538;52.196;9.892;2022-08-21T04:42:09;232.10;;;221.83;;
16693;SDS011;39538;52.196;9.892;2022-08-21T04:44:35;230.03;;;220.07;;
16693;SDS011;39538;52.196;9.892;2022-08-21T04:47:02;231.07;;;221.23;;
16693;SDS011;39538;52.196;9.892;2022-08-21T04:49:30;228.53;;;218.30;;
16693;SDS011;39538;52.196;9.892;2022-08-21T04:51:56;239.30;;;228.63;;
16693;SDS011;39538;52.196;9.892;2022-08-21T04:54:23;234.57;;;224.33;;
16693;SDS011;39538;52.196;9.892;2022-08-21T04:59:17;235.33;;;225.07;;
16693;SDS011;39538;52.196;9.892;2022-08-21T05:01:47;233.83;;;223.40;;
16693;SDS011;39538;52.196;9.892;2022-08-21T05:04:14;236.77;;;226.13;;
16693;SDS011;39538;52.196;9.892;2022-08-21T05:06:45;231.33;;;221.17;;
16693;SDS011;39538;52.196;9.892;2022-08-21T05:09:14;229.70;;;219.47;;
16693;SDS011;39538;52.196;9.892;2022-08-21T05:11:42;229.93;;;219.87;;
16693;SDS011;39538;52.196;9.892;2022-08-21T05:14:09;227.47;;;216.47;;
16693;SDS011;39538;52.196;9.892;2022-08-21T05:16:36;227.60;;;217.20;;
16693;SDS011;39538;52.196;9.892;2022-08-21T05:19:02;222.40;;;212.17;;
16693;SDS011;39538;52.196;9.892;2022-08-21T05:21:29;237.23;;;226.70;;
16693;SDS011;39538;52.196;9.892;2022-08-21T05:23:57;245.50;;;234.70;;
16693;SDS011;39538;52.196;9.892;2022-08-21T05:26:23;230.73;;;220.70;;
16693;SDS011;39538;52.196;9.892;2022-08-21T05:28:49;253.27;;;241.87;;
16693;SDS011;39538;52.196;9.892;2022-08-21T05:31:17;233.10;;;222.43;;
16693;SDS011;39538;52.196;9.892;2022-08-21T05:33:43;229.67;;;219.60;;
16693;SDS011;39538;52.196;9.892;2022-08-21T05:36:09;221.53;;;211.40;;
16693;SDS011;39538;52.196;9.892;2022-08-21T05:38:36;238.73;;;228.13;;
16693;SDS011;39538;52.196;9.892;2022-08-21T05:41:04;254.97;;;243.53;;
16693;SDS011;39538;52.196;9.892;2022-08-21T05:43:30;251.87;;;240.67;;
16693;SDS011;39538;52.196;9.892;2022-08-21T05:45:57;255.80;;;244.37;;
16693;SDS011;39538;52.196;9.892;2022-08-21T05:48:24;255.03;;;243.73;;
16693;SDS011;39538;52.196;9.892;2022-08-21T05:50:51;245.07;;;233.80;;
16693;SDS011;39538;52.196;9.892;2022-08-21T05:53:20;243.77;;;232.57;;
16693;SDS011;39538;52.196;9.892;2022-08-21T05:55:47;240.57;;;229.57;;
16693;SDS011;39538;52.196;9.892;2022-08-21T05:58:17;247.40;;;235.70;;
16693;SDS011;39538;52.196;9.892;2022-08-21T06:00:44;233.30;;;222.73;;
16693;SDS011;39538;52.196;9.892;2022-08-21T06:03:13;257.60;;;246.03;;
16693;SDS011;39538;52.196;9.892;2022-08-21T06:05:42;251.73;;;240.57;;
16693;SDS011;39538;52.196;9.892;2022-08-21T06:08:09;252.13;;;240.87;;
16693;SDS011;39538;52.196;9.892;2022-08-21T06:10:35;262.23;;;250.47;;
16693;SDS011;39538;52.196;9.892;2022-08-21T06:13:02;268.13;;;255.83;;
16693;SDS011;39538;52.196;9.892;2022-08-21T06:15:30;249.33;;;238.03;;
16693;SDS011;39538;52.196;9.892;2022-08-21T06:17:57;257.03;;;246.17;;
16693;SDS011;39538;52.196;9.892;2022-08-21T06:20:23;249.37;;;238.37;;
16693;SDS011;39538;52.196;9.892;2022-08-21T06:22:50;250.93;;;239.80;;
16693;SDS011;39538;52.196;9.892;2022-08-21T06:25:17;249.40;;;238.27;;
16693;SDS011;39538;52.196;9.892;2022-08-21T06:27:44;248.20;;;237.37;;
16693;SDS011;39538;52.196;9.892;2022-08-21T06:30:11;247.10;;;236.23;;
16693;SDS011;39538;52.196;9.892;2022-08-21T06:32:39;261.43;;;250.03;;
16693;SDS011;39538;52.196;9.892;2022-08-21T06:35:05;261.40;;;249.87;;
16693;SDS011;39538;52.196;9.892;2022-08-21T06:37:32;258.57;;;247.83;;
16693;SDS011;39538;52.196;9.892;2022-08-21T06:39:59;242.57;;;231.90;;
16693;SDS011;39538;52.196;9.892;2022-08-21T06:42:26;212.63;;;202.93;;
16693;SDS011;39538;52.196;9.892;2022-08-21T06:44:52;202.90;;;193.00;;
16693;SDS011;39538;52.196;9.892;2022-08-21T06:47:19;213.30;;;203.50;;
16693;SDS011;39538;52.196;9.892;2022-08-21T06:49:47;211.07;;;201.20;;
16693;SDS011;39538;52.196;9.892;2022-08-21T06:52:13;222.40;;;212.30;;
16693;SDS011;39538;52.196;9.892;2022-08-21T06:54:40;253.60;;;242.30;;
16693;SDS011;39538;52.196;9.892;2022-08-21T06:57:07;265.67;;;253.90;;
16693;SDS011;39538;52.196;9.892;2022-08-21T06:59:33;243.50;;;232.67;;
16693;SDS011;39538;52.196;9.892;2022-08-21T07:02:00;237.93;;;227.37;;
16693;SDS011;39538;52.196;9.892;2022-08-21T07:04:27;279.47;;;266.97;;
16693;SDS011;39538;52.196;9.892;2022-08-21T07:06:54;241.37;;;230.43;;
16693;SDS011;39538;52.196;9.892;2022-08-21T07:09:21;235.97;;;225.13;;
16693;SDS011;39538;52.196;9.892;2022-08-21T07:11:48;227.27;;;216.70;;
16693;SDS011;39538;52.196;9.892;2022-08-21T07:14:17;251.33;;;240.20;;
16693;SDS011;39538;52.196;9.892;2022-08-21T07:16:44;250.63;;;239.93;;
16693;SDS011;39538;52.196;9.892;2022-08-21T07:19:10;231.13;;;219.97;;
16693;SDS011;39538;52.196;9.892;2022-08-21T07:21:37;233.03;;;222.27;;
16693;SDS011;39538;52.196;9.892;2022-08-21T07:24:05;242.37;;;231.30;;
16693;SDS011;39538;52.196;9.892;2022-08-21T07:26:32;229.50;;;218.53;;
16693;SDS011;39538;52.196;9.892;2022-08-21T07:28:58;230.07;;;219.87;;
16693;SDS011;39538;52.196;9.892;2022-08-21T07:31:25;223.87;;;213.70;;
16693;SDS011;39538;52.196;9.892;2022-08-21T07:33:53;221.03;;;211.60;;
16693;SDS011;39538;52.196;9.892;2022-08-21T07:36:19;202.53;;;193.40;;
16693;SDS011;39538;52.196;9.892;2022-08-21T07:38:46;191.90;;;183.43;;
16693;SDS011;39538;52.196;9.892;2022-08-21T07:41:14;184.00;;;175.73;;
16693;SDS011;39538;52.196;9.892;2022-08-21T07:43:43;175.77;;;167.60;;
16693;SDS011;39538;52.196;9.892;2022-08-21T07:46:10;184.17;;;175.17;;
16693;SDS011;39538;52.196;9.892;2022-08-21T07:48:37;191.40;;;182.03;;
16693;SDS011;39538;52.196;9.892;2022-08-21T07:51:05;197.80;;;187.77;;
16693;SDS011;39538;52.196;9.892;2022-08-21T07:53:33;179.63;;;170.43;;
16693;SDS011;39538;52.196;9.892;2022-08-21T07:56:00;160.37;;;153.00;;
16693;SDS011;39538;52.196;9.892;2022-08-21T07:58:28;147.67;;;140.77;;
16693;SDS011;39538;52.196;9.892;2022-08-21T08:00:55;130.77;;;125.13;;
16693;SDS011;39538;52.196;9.892;2022-08-21T08:03:21;136.87;;;130.93;;
16693;SDS011;39538;52.196;9.892;2022-08-21T08:05:48;128.97;;;123.67;;
16693;SDS011;39538;52.196;9.892;2022-08-21T08:08:14;145.13;;;138.73;;
16693;SDS011;39538;52.196;9.892;2022-08-21T08:10:40;131.50;;;125.67;;
16693;SDS011;39538;52.196;9.892;2022-08-21T08:13:07;117.20;;;112.33;;
16693;SDS011;39538;52.196;9.892;2022-08-21T08:15:35;109.17;;;104.63;;
16693;SDS011;39538;52.196;9.892;2022-08-21T08:18:02;103.78;;;99.45;;
16693;SDS011;39538;52.196;9.892;2022-08-21T08:20:29;94.85;;;91.10;;
16693;SDS011;39538;52.196;9.892;2022-08-21T08:22:55;95.50;;;91.22;;
16693;SDS011;39538;52.196;9.892;2022-08-21T08:25:23;89.70;;;85.78;;
16693;SDS011;39538;52.196;9.892;2022-08-21T08:27:51;87.22;;;83.53;;
16693;SDS011;39538;52.196;9.892;2022-08-21T08:30:18;69.65;;;67.30;;
16693;SDS011;39538;52.196;9.892;2022-08-21T08:32:48;73.78;;;71.38;;
16693;SDS011;39538;52.196;9.892;2022-08-21T08:35:15;80.38;;;77.63;;
16693;SDS011;39538;52.196;9.892;2022-08-21T08:37:42;87.85;;;84.57;;
16693;SDS011;39538;52.196;9.892;2022-08-21T08:40:11;82.70;;;80.05;;
16693;SDS011;39538;52.196;9.892;2022-08-21T08:42:39;81.00;;;78.13;;
16693;SDS011;39538;52.196;9.892;2022-08-21T08:45:07;77.95;;;75.00;;
16693;SDS011;39538;52.196;9.892;2022-08-21T08:47:37;81.28;;;78.47;;
16693;SDS011;39538;52.196;9.892;2022-08-21T08:50:10;65.43;;;63.38;;
16693;SDS011;39538;52.196;9.892;2022-08-21T08:52:43;62.03;;;60.03;;
16693;SDS011;39538;52.196;9.892;2022-08-21T08:55:14;52.22;;;50.75;;
16693;SDS011;39538;52.196;9.892;2022-08-21T08:57:44;57.95;;;55.92;;
16693;SDS011;39538;52.196;9.892;2022-08-21T09:00:14;66.78;;;64.63;;
16693;SDS011;39538;52.196;9.892;2022-08-21T09:02:45;71.82;;;68.72;;
16693;SDS011;39538;52.196;9.892;2022-08-21T09:05:17;73.25;;;70.90;;
16693;SDS011;39538;52.196;9.892;2022-08-21T09:07:50;73.97;;;71.53;;
16693;SDS011;39538;52.196;9.892;2022-08-21T09:10:29;75.45;;;72.97;;
16693;SDS011;39538;52.196;9.892;2022-08-21T09:13:05;84.20;;;80.57;;
16693;SDS011;39538;52.196;9.892;2022-08-21T09:15:45;82.90;;;80.03;;
16693;SDS011;39538;52.196;9.892;2022-08-21T09:18:21;89.18;;;85.80;;
16693;SDS011;39538;52.196;9.892;2022-08-21T09:21:05;83.68;;;80.38;;
16693;SDS011;39538;52.196;9.892;2022-08-21T09:23:43;84.60;;;81.47;;
16693;SDS011;39538;52.196;9.892;2022-08-21T09:26:19;88.07;;;84.70;;
16693;SDS011;39538;52.196;9.892;2022-08-21T09:28:50;90.85;;;87.63;;
16693;SDS011;39538;52.196;9.892;2022-08-21T09:31:21;95.65;;;91.97;;
16693;SDS011;39538;52.196;9.892;2022-08-21T09:33:50;87.50;;;84.45;;
16693;SDS011;39538;52.196;9.892;2022-08-21T09:36:26;112.72;;;107.70;;
16693;SDS011;39538;52.196;9.892;2022-08-21T09:39:02;93.93;;;89.85;;
16693;SDS011;39538;52.196;9.892;2022-08-21T09:41:30;93.78;;;90.40;;
16693;SDS011;39538;52.196;9.892;2022-08-21T09:43:58;88.60;;;85.28;;
16693;SDS011;39538;52.196;9.892;2022-08-21T09:46:26;98.55;;;94.53;;
16693;SDS011;39538;52.196;9.892;2022-08-21T09:48:54;95.97;;;92.55;;
16693;SDS011;39538;52.196;9.892;2022-08-21T09:51:24;88.93;;;85.75;;
16693;SDS011;39538;52.196;9.892;2022-08-21T09:53:53;89.55;;;86.50;;
16693;SDS011;39538;52.196;9.892;2022-08-21T09:56:27;87.13;;;84.18;;
16693;SDS011;39538;52.196;9.892;2022-08-21T09:59:16;87.65;;;84.50;;
16693;SDS011;39538;52.196;9.892;2022-08-21T10:01:46;83.10;;;79.20;;
16693;SDS011;39538;52.196;9.892;2022-08-21T10:04:14;87.05;;;84.05;;
16693;SDS011;39538;52.196;9.892;2022-08-21T10:06:46;90.25;;;87.25;;
16693;SDS011;39538;52.196;9.892;2022-08-21T10:09:13;94.25;;;91.20;;
16693;SDS011;39538;52.196;9.892;2022-08-21T10:11:45;94.43;;;91.07;;
16693;SDS011;39538;52.196;9.892;2022-08-21T10:14:30;77.15;;;74.65;;
16693;SDS011;39538;52.196;9.892;2022-08-21T10:17:15;77.72;;;75.05;;
16693;SDS011;39538;52.196;9.892;2022-08-21T10:19:51;80.00;;;77.10;;
16693;SDS011;39538;52.196;9.892;2022-08-21T10:22:30;82.28;;;79.72;;
16693;SDS011;39538;52.196;9.892;2022-08-21T10:25:06;87.80;;;84.10;;
16693;SDS011;39538;52.196;9.892;2022-08-21T10:27:44;87.53;;;84.80;;
16693;SDS011;39538;52.196;9.892;2022-08-21T10:30:20;91.63;;;88.53;;
16693;SDS011;39538;52.196;9.892;2022-08-21T10:32:55;91.40;;;88.22;;
16693;SDS011;39538;52.196;9.892;2022-08-21T10:35:30;93.72;;;90.63;;
16693;SDS011;39538;52.196;9.892;2022-08-21T10:38:11;84.05;;;81.18;;
16693;SDS011;39538;52.196;9.892;2022-08-21T10:41:01;84.80;;;81.78;;
16693;SDS011;39538;52.196;9.892;2022-08-21T10:43:35;82.88;;;79.93;;
16693;SDS011;39538;52.196;9.892;2022-08-21T10:46:15;97.03;;;93.50;;
16693;SDS011;39538;52.196;9.892;2022-08-21T10:48:49;82.60;;;79.68;;
16693;SDS011;39538;52.196;9.892;2022-08-21T10:51:20;88.43;;;85.25;;
16693;SDS011;39538;52.196;9.892;2022-08-21T10:53:57;78.78;;;76.03;;
16693;SDS011;39538;52.196;9.892;2022-08-21T10:56:30;85.43;;;82.28;;
16693;SDS011;39538;52.196;9.892;2022-08-21T10:59:02;89.47;;;86.43;;
16693;SDS011;39538;52.196;9.892;2022-08-21T11:01:42;90.68;;;87.43;;
16693;SDS011;39538;52.196;9.892;2022-08-21T11:04:16;72.47;;;70.03;;
16693;SDS011;39538;52.196;9.892;2022-08-21T11:06:47;70.00;;;67.53;;
16693;SDS011;39538;52.196;9.892;2022-08-21T11:09:22;92.20;;;88.97;;
16693;SDS011;39538;52.196;9.892;2022-08-21T11:11:52;76.28;;;73.78;;
16693;SDS011;39538;52.196;9.892;2022-08-21T11:14:24;75.22;;;72.68;;
16693;SDS011;39538;52.196;9.892;2022-08-21T11:17:00;77.30;;;74.88;;
16693;SDS011;39538;52.196;9.892;2022-08-21T11:19:33;77.20;;;74.32;;
16693;SDS011;39538;52.196;9.892;2022-08-21T11:22:04;66.65;;;64.22;;
16693;SDS011;39538;52.196;9.892;2022-08-21T11:24:40;79.93;;;77.00;;
16693;SDS011;39538;52.196;9.892;2022-08-21T11:27:18;89.10;;;86.07;;
16693;SDS011;39538;52.196;9.892;2022-08-21T11:29:51;98.35;;;93.95;;
16693;SDS011;39538;52.196;9.892;2022-08-21T11:32:27;88.07;;;84.85;;
16693;SDS011;39538;52.196;9.892;2022-08-21T11:35:08;96.60;;;92.40;;
16693;SDS011;39538;52.196;9.892;2022-08-21T11:37:43;100.63;;;95.07;;
16693;SDS011;39538;52.196;9.892;2022-08-21T11:40:19;98.45;;;94.43;;
16693;SDS011;39538;52.196;9.892;2022-08-21T11:42:59;96.82;;;93.05;;
16693;SDS011;39538;52.196;9.892;2022-08-21T11:45:43;106.30;;;102.18;;
16693;SDS011;39538;52.196;9.892;2022-08-21T11:48:15;97.88;;;94.47;;
16693;SDS011;39538;52.196;9.892;2022-08-21T11:51:00;94.55;;;91.00;;
16693;SDS011;39538;52.196;9.892;2022-08-21T11:53:32;99.97;;;96.20;;
16693;SDS011;39538;52.196;9.892;2022-08-21T11:56:07;96.93;;;93.63;;
16693;SDS011;39538;52.196;9.892;2022-08-21T11:58:40;97.50;;;93.72;;
16693;SDS011;39538;52.196;9.892;2022-08-21T12:01:11;92.00;;;88.75;;
16693;SDS011;39538;52.196;9.892;2022-08-21T12:03:55;91.47;;;88.43;;
16693;SDS011;39538;52.196;9.892;2022-08-21T12:06:30;90.45;;;87.20;;
16693;SDS011;39538;52.196;9.892;2022-08-21T12:08:59;110.47;;;106.47;;
16693;SDS011;39538;52.196;9.892;2022-08-21T12:11:29;128.48;;;123.30;;
16693;SDS011;39538;52.196;9.892;2022-08-21T12:13:57;122.22;;;116.70;;
16693;SDS011;39538;52.196;9.892;2022-08-21T12:16:28;113.50;;;108.85;;
16693;SDS011;39538;52.196;9.892;2022-08-21T12:19:02;129.57;;;124.30;;
16693;SDS011;39538;52.196;9.892;2022-08-21T12:21:31;152.52;;;146.23;;
16693;SDS011;39538;52.196;9.892;2022-08-21T12:24:02;112.72;;;108.03;;
16693;SDS011;39538;52.196;9.892;2022-08-21T12:26:33;119.45;;;114.70;;
16693;SDS011;39538;52.196;9.892;2022-08-21T12:29:04;121.22;;;116.40;;
16693;SDS011;39538;52.196;9.892;2022-08-21T12:31:36;113.32;;;108.72;;
16693;SDS011;39538;52.196;9.892;2022-08-21T12:34:14;118.38;;;113.63;;
16693;SDS011;39538;52.196;9.892;2022-08-21T12:36:42;114.78;;;110.20;;
16693;SDS011;39538;52.196;9.892;2022-08-21T12:39:15;124.57;;;119.63;;
16693;SDS011;39538;52.196;9.892;2022-08-21T12:41:49;119.72;;;115.22;;
16693;SDS011;39538;52.196;9.892;2022-08-21T12:44:21;125.13;;;119.97;;
16693;SDS011;39538;52.196;9.892;2022-08-21T12:46:54;117.80;;;112.93;;
16693;SDS011;39538;52.196;9.892;2022-08-21T12:49:26;126.22;;;121.32;;
16693;SDS011;39538;52.196;9.892;2022-08-21T12:51:57;103.05;;;99.45;;
16693;SDS011;39538;52.196;9.892;2022-08-21T12:54:31;112.60;;;108.28;;
16693;SDS011;39538;52.196;9.892;2022-08-21T12:57:05;111.72;;;107.65;;
16693;SDS011;39538;52.196;9.892;2022-08-21T12:59:36;102.35;;;98.45;;
16693;SDS011;39538;52.196;9.892;2022-08-21T13:02:05;102.05;;;98.32;;
16693;SDS011;39538;52.196;9.892;2022-08-21T13:04:41;105.25;;;101.28;;
16693;SDS011;39538;52.196;9.892;2022-08-21T13:07:09;97.40;;;93.35;;
16693;SDS011;39538;52.196;9.892;2022-08-21T13:09:40;91.88;;;88.63;;
16693;SDS011;39538;52.196;9.892;2022-08-21T13:12:14;83.93;;;80.95;;
16693;SDS011;39538;52.196;9.892;2022-08-21T13:14:42;75.55;;;73.20;;
16693;SDS011;39538;52.196;9.892;2022-08-21T13:17:11;72.22;;;70.13;;
16693;SDS011;39538;52.196;9.892;2022-08-21T13:19:39;65.53;;;63.47;;
16693;SDS011;39538;52.196;9.892;2022-08-21T13:22:11;67.45;;;65.32;;
16693;SDS011;39538;52.196;9.892;2022-08-21T13:24:40;56.88;;;54.60;;
16693;SDS011;39538;52.196;9.892;2022-08-21T13:27:16;67.07;;;65.07;;
16693;SDS011;39538;52.196;9.892;2022-08-21T13:29:45;55.67;;;54.22;;
16693;SDS011;39538;52.196;9.892;2022-08-21T13:32:17;60.50;;;58.75;;
16693;SDS011;39538;52.196;9.892;2022-08-21T13:34:48;61.55;;;59.92;;
16693;SDS011;39538;52.196;9.892;2022-08-21T13:37:15;54.72;;;53.33;;
16693;SDS011;39538;52.196;9.892;2022-08-21T13:39:47;57.83;;;56.33;;
16693;SDS011;39538;52.196;9.892;2022-08-21T13:42:17;59.90;;;58.10;;
16693;SDS011;39538;52.196;9.892;2022-08-21T13:44:44;56.42;;;54.63;;
16693;SDS011;39538;52.196;9.892;2022-08-21T13:47:14;49.00;;;47.58;;
16693;SDS011;39538;52.196;9.892;2022-08-21T13:49:43;48.97;;;47.58;;
16693;SDS011;39538;52.196;9.892;2022-08-21T13:52:14;47.00;;;45.53;;
16693;SDS011;39538;52.196;9.892;2022-08-21T13:54:42;43.70;;;42.55;;
16693;SDS011;39538;52.196;9.892;2022-08-21T13:57:17;50.75;;;49.15;;
16693;SDS011;39538;52.196;9.892;2022-08-21T13:59:44;47.67;;;46.40;;
16693;SDS011;39538;52.196;9.892;2022-08-21T14:02:12;42.75;;;41.60;;
16693;SDS011;39538;52.196;9.892;2022-08-21T14:04:42;42.42;;;41.13;;
16693;SDS011;39538;52.196;9.892;2022-08-21T14:07:17;43.83;;;42.45;;
16693;SDS011;39538;52.196;9.892;2022-08-21T14:09:45;42.25;;;41.22;;
16693;SDS011;39538;52.196;9.892;2022-08-21T14:12:14;41.70;;;40.40;;
16693;SDS011;39538;52.196;9.892;2022-08-21T14:14:43;43.25;;;41.78;;
16693;SDS011;39538;52.196;9.892;2022-08-21T14:17:12;39.00;;;37.83;;
16693;SDS011;39538;52.196;9.892;2022-08-21T14:19:41;42.90;;;41.80;;
16693;SDS011;39538;52.196;9.892;2022-08-21T14:22:21;41.63;;;40.28;;